createdAt,value
2022-10-17T00:00:09.238Z,100394.50
2022-10-17T00:02:11.407Z,100394.31
2022-10-17T00:04:13.458Z,100381.31
2022-10-17T00:06:16.147Z,100394.41
2022-10-17T00:08:19.529Z,100373.41
2022-10-17T00:10:23.103Z,100390.06
2022-10-17T00:12:25.239Z,100382.16
2022-10-17T00:14:27.371Z,100388.31
2022-10-17T00:16:33.710Z,100376.97
2022-10-17T00:18:35.733Z,100374.22
2022-10-17T00:20:38.016Z,100364.56
2022-10-17T00:22:40.159Z,100388.19
2022-10-17T00:24:42.288Z,100349.50
2022-10-17T00:26:44.342Z,100368.97
2022-10-17T00:28:48.261Z,100365.47
2022-10-17T00:31:05.615Z,100357.56
2022-10-17T00:33:08.039Z,100343.47
2022-10-17T00:35:10.805Z,100354.13
2022-10-17T00:37:13.041Z,100353.22
2022-10-17T00:39:16.016Z,100334.88
2022-10-17T00:41:20.019Z,100336.56
2022-10-17T00:43:22.187Z,100342.81
2022-10-17T00:45:27.884Z,100341.09
2022-10-17T00:47:31.021Z,100337.56
2022-10-17T00:49:36.128Z,100339.38
2022-10-17T00:51:45.408Z,100324.66
2022-10-17T00:53:47.578Z,100340.38
2022-10-17T00:55:52.893Z,100331.66
2022-10-17T00:57:56.625Z,100344.75
2022-10-17T01:00:00.901Z,100326.53
2022-10-17T01:02:11.705Z,100302.88
2022-10-17T01:04:13.744Z,100310.88
2022-10-17T01:06:16.036Z,100315.31
2022-10-17T01:08:18.375Z,100299.63
2022-10-17T01:10:20.872Z,100311.81
2022-10-17T01:12:35.454Z,100315.25
2022-10-17T01:15:03.026Z,100316.09
2022-10-17T01:17:15.192Z,100308.22
2022-10-17T01:19:35.953Z,100309.06
2022-10-17T01:22:01.586Z,100292.47
2022-10-17T01:24:37.319Z,100295.13
2022-10-17T01:27:01.088Z,100298.50
2022-10-17T01:29:33.424Z,100288.91
2022-10-17T01:31:47.924Z,100282.72
2022-10-17T01:33:59.126Z,100281.88
2022-10-17T01:36:13.000Z,100274.88
2022-10-17T01:38:24.048Z,100266.03
2022-10-17T01:40:30.308Z,100272.09
2022-10-17T01:42:42.741Z,100261.59
2022-10-17T01:44:56.202Z,100266.72
2022-10-17T01:47:05.670Z,100259.72
2022-10-17T01:49:10.653Z,100270.06
2022-10-17T01:51:22.525Z,100257.78
2022-10-17T01:53:30.370Z,100258.69
2022-10-17T01:55:36.479Z,100261.22
2022-10-17T01:57:44.043Z,100255.97
2022-10-17T01:59:49.891Z,100252.44
2022-10-17T02:01:55.693Z,100249.81
2022-10-17T02:04:00.312Z,100254.06
2022-10-17T02:06:03.513Z,100253.13
2022-10-17T02:08:07.263Z,100246.13
2022-10-17T02:10:32.372Z,100247.00
2022-10-17T02:12:54.248Z,100244.31
2022-10-17T02:15:15.234Z,100259.81
2022-10-17T02:17:38.435Z,100258.81
2022-10-17T02:19:46.347Z,100255.31
2022-10-17T02:21:57.615Z,100250.03
2022-10-17T02:24:15.542Z,100245.59
2022-10-17T02:26:25.039Z,100250.00
2022-10-17T02:28:47.402Z,100251.66
2022-10-17T02:31:13.877Z,100242.91
2022-10-17T02:33:59.907Z,100247.34
2022-10-17T02:36:10.256Z,100248.94
2022-10-17T02:38:13.531Z,100244.66
2022-10-17T02:40:21.211Z,100228.91
2022-10-17T02:42:26.341Z,100234.16
2022-10-17T02:44:30.848Z,100249.03
2022-10-17T02:46:34.643Z,100237.81
2022-10-17T02:48:42.637Z,100237.84
2022-10-17T02:51:12.945Z,100227.44
2022-10-17T02:53:25.369Z,100224.81
2022-10-17T02:55:33.550Z,100218.81
2022-10-17T02:57:47.614Z,100228.47
2022-10-17T02:59:51.264Z,100223.38
2022-10-17T03:01:53.819Z,100230.31
2022-10-17T03:04:10.112Z,100212.06
2022-10-17T03:06:12.206Z,100224.28
2022-10-17T03:08:14.515Z,100224.28
2022-10-17T03:10:16.536Z,100229.44
2022-10-17T03:12:18.709Z,100226.72
2022-10-17T03:14:21.235Z,100215.47
2022-10-17T03:16:23.235Z,100205.75
2022-10-17T03:18:25.482Z,100201.34
2022-10-17T03:20:32.940Z,100208.41
2022-10-17T03:22:35.062Z,100189.00
2022-10-17T03:24:39.059Z,100203.00
2022-10-17T03:26:41.106Z,100186.47
2022-10-17T03:28:43.282Z,100182.88
2022-10-17T03:30:45.407Z,100182.72
2022-10-17T03:32:47.624Z,100176.56
2022-10-17T03:34:49.791Z,100177.34
2022-10-17T03:36:52.586Z,100171.22
2022-10-17T03:38:55.955Z,100177.34
2022-10-17T03:40:58.495Z,100170.41
2022-10-17T03:43:01.410Z,100162.69
2022-10-17T03:45:05.297Z,100135.63
2022-10-17T03:47:09.327Z,100148.75
2022-10-17T03:49:14.783Z,100154.84
2022-10-17T03:51:17.564Z,100159.31
2022-10-17T03:53:24.987Z,100161.06
2022-10-17T03:55:27.133Z,100152.53
2022-10-17T03:57:29.327Z,100155.28
2022-10-17T03:59:31.395Z,100159.69
2022-10-17T04:01:39.034Z,100154.44
2022-10-17T04:03:43.526Z,100141.44
2022-10-17T04:05:45.637Z,100144.97
2022-10-17T04:07:47.901Z,100140.75
2022-10-17T04:09:51.984Z,100141.66
2022-10-17T04:11:55.884Z,100124.28
2022-10-17T04:14:02.280Z,100133.13
2022-10-17T04:16:09.015Z,100120.16
2022-10-17T04:18:15.774Z,100123.81
2022-10-17T04:20:17.892Z,100130.91
2022-10-17T04:22:20.024Z,100143.16
2022-10-17T04:24:22.280Z,100139.03
2022-10-17T04:26:40.619Z,100120.75
2022-10-17T04:28:42.844Z,100128.00
2022-10-17T04:30:45.620Z,100110.63
2022-10-17T04:32:51.595Z,100117.88
2022-10-17T04:34:56.549Z,100123.34
2022-10-17T04:36:59.111Z,100104.34
2022-10-17T04:39:03.730Z,100121.97
2022-10-17T04:41:10.474Z,100110.84
2022-10-17T04:43:12.602Z,100114.41
2022-10-17T04:45:14.895Z,100095.38
2022-10-17T04:47:17.653Z,100113.03
2022-10-17T04:49:19.923Z,100117.53
2022-10-17T04:51:26.613Z,100090.63
2022-10-17T04:53:58.406Z,100080.31
2022-10-17T04:56:01.373Z,100093.44
2022-10-17T04:58:04.248Z,100096.19
2022-10-17T05:02:36.771Z,100087.75
2022-10-17T05:04:39.412Z,100100.91
2022-10-17T05:06:42.364Z,100096.53
2022-10-17T05:09:12.032Z,100084.50
2022-10-17T05:11:32.596Z,100091.72
2022-10-17T05:13:34.656Z,100091.72
2022-10-17T05:15:37.630Z,100089.09
2022-10-17T05:17:39.657Z,100093.63
2022-10-17T05:19:42.320Z,100084.97
2022-10-17T05:21:44.787Z,100075.53
2022-10-17T05:23:47.014Z,100100.16
2022-10-17T05:25:54.986Z,100085.44
2022-10-17T05:27:59.226Z,100084.75
2022-10-17T05:30:01.878Z,100079.72
2022-10-17T05:32:08.517Z,100075.44
2022-10-17T05:34:13.168Z,100081.56
2022-10-17T05:36:16.521Z,100065.09
2022-10-17T05:38:18.949Z,100059.88
2022-10-17T05:40:22.608Z,100059.19
2022-10-17T05:42:27.847Z,100059.34
2022-10-17T05:44:31.379Z,100062.19
2022-10-17T05:46:35.353Z,100049.31
2022-10-17T05:48:37.455Z,100051.31
2022-10-17T05:50:40.120Z,100058.41
2022-10-17T05:52:47.351Z,100045.50
2022-10-17T05:54:51.444Z,100045.63
2022-10-17T05:56:55.403Z,100043.09
2022-10-17T05:59:01.618Z,100029.25
2022-10-17T06:01:33.102Z,100024.06
2022-10-17T06:03:35.433Z,100035.50
2022-10-17T06:05:40.491Z,100044.25
2022-10-17T06:07:42.725Z,100044.28
2022-10-17T06:11:47.743Z,100045.16
2022-10-17T06:13:50.501Z,100044.25
2022-10-17T06:15:58.136Z,100037.28
2022-10-17T06:18:00.299Z,100043.41
2022-10-17T06:20:02.584Z,100036.44
2022-10-17T06:22:05.031Z,100039.03
2022-10-17T06:24:09.737Z,100044.22
2022-10-17T06:26:14.907Z,100041.59
2022-10-17T06:28:17.091Z,100046.84
2022-10-17T06:30:19.617Z,100037.31
2022-10-17T06:32:21.643Z,100041.72
2022-10-17T06:34:23.801Z,100036.50
2022-10-17T06:36:26.019Z,100018.22
2022-10-17T06:38:28.344Z,100021.75
2022-10-17T06:40:32.777Z,100021.75
2022-10-17T06:42:35.019Z,100028.75
2022-10-17T06:45:00.282Z,100021.81
2022-10-17T06:47:19.237Z,100007.88
2022-10-17T06:49:23.176Z,99994.00
2022-10-17T06:51:25.133Z,99992.34
2022-10-17T06:53:32.345Z,99993.28
2022-10-17T06:56:03.253Z,99989.06
2022-10-17T06:58:16.885Z,99989.09
2022-10-17T07:00:39.256Z,100000.50
2022-10-17T07:02:42.757Z,99998.78
2022-10-17T07:04:47.287Z,100004.88
2022-10-17T07:06:49.816Z,99986.56
2022-10-17T07:08:59.048Z,99985.69
2022-10-17T07:11:12.119Z,99970.88
2022-10-17T07:13:19.351Z,99944.69
2022-10-17T07:16:11.467Z,99930.72
2022-10-17T07:18:26.441Z,99972.69
2022-10-17T07:20:29.050Z,99985.78
2022-10-17T07:22:31.734Z,99982.28
2022-10-17T07:24:34.444Z,99971.78
2022-10-17T07:27:00.641Z,99976.13
2022-10-17T07:29:02.778Z,99981.38
2022-10-17T07:31:20.212Z,99953.44
2022-10-17T07:33:22.492Z,99973.53
2022-10-17T07:35:25.442Z,99970.97
2022-10-17T07:37:29.566Z,99974.44
2022-10-17T07:39:32.306Z,99980.56
2022-10-17T07:41:34.320Z,99980.59
2022-10-17T07:43:37.193Z,99973.63
2022-10-17T07:45:44.747Z,99960.53
2022-10-17T07:47:47.352Z,99967.50
2022-10-17T07:49:58.473Z,99952.63
2022-10-17T07:52:00.572Z,99971.84
2022-10-17T07:54:04.847Z,99967.44
2022-10-17T07:56:09.323Z,99960.47
2022-10-17T07:58:15.527Z,99954.38
2022-10-17T08:00:23.259Z,99971.84
2022-10-17T08:02:28.157Z,99980.53
2022-10-17T08:04:31.336Z,99971.81
2022-10-17T08:06:36.493Z,99965.69
2022-10-17T08:08:44.565Z,99968.31
2022-10-17T08:10:47.195Z,99942.09
2022-10-17T08:12:51.806Z,99972.63
2022-10-17T08:14:54.517Z,99970.03
2022-10-17T08:16:59.836Z,99950.88
2022-10-17T08:19:02.530Z,99944.75
2022-10-17T08:21:08.843Z,99953.53
2022-10-17T08:23:11.219Z,99943.94
2022-10-17T08:25:13.336Z,99950.06
2022-10-17T08:27:21.503Z,99948.31
2022-10-17T08:29:23.609Z,99924.75
2022-10-17T08:31:25.853Z,99922.13
2022-10-17T08:33:28.648Z,99919.53
2022-10-17T08:35:30.653Z,99927.38
2022-10-17T08:37:33.203Z,99923.91
2022-10-17T08:39:35.859Z,99940.47
2022-10-17T08:42:02.753Z,99950.91
2022-10-17T08:44:25.977Z,99956.13
2022-10-17T08:46:39.135Z,99952.63
2022-10-17T08:48:47.764Z,99956.09
2022-10-17T08:51:04.924Z,99956.06
2022-10-17T08:53:16.075Z,99956.03
2022-10-17T08:55:33.088Z,99966.44
2022-10-17T08:57:35.454Z,99953.34
2022-10-17T08:59:38.363Z,99956.78
2022-10-17T09:01:50.344Z,99975.97
2022-10-17T09:04:12.172Z,99962.00
2022-10-17T09:06:37.130Z,99977.69
2022-10-17T09:08:54.320Z,99956.75
2022-10-17T09:11:03.788Z,99950.56
2022-10-17T09:13:53.691Z,99965.41
2022-10-17T09:16:13.906Z,99940.03
2022-10-17T09:18:25.041Z,99970.47
2022-10-17T09:21:00.418Z,99952.97
2022-10-17T09:23:16.443Z,99942.38
2022-10-17T09:25:21.899Z,99942.31
2022-10-17T09:27:37.654Z,99946.69
2022-10-17T09:29:43.706Z,99936.22
2022-10-17T09:31:53.727Z,99942.38
2022-10-17T09:33:57.945Z,99951.94
2022-10-17T09:36:05.031Z,99938.81
2022-10-17T09:38:13.878Z,99949.28
2022-10-17T09:40:32.516Z,99953.75
2022-10-17T09:42:36.923Z,99936.22
2022-10-17T09:44:49.581Z,99948.53
2022-10-17T09:46:55.227Z,99930.31
2022-10-17T09:49:05.270Z,99929.47
2022-10-17T09:51:25.030Z,99908.56
2022-10-17T09:53:34.484Z,99911.22
2022-10-17T09:55:48.478Z,99914.69
2022-10-17T09:57:59.062Z,99900.69
2022-10-17T10:00:05.730Z,99917.22
2022-10-17T10:02:22.187Z,99913.63
2022-10-17T10:04:30.203Z,99911.16
2022-10-17T10:06:37.935Z,99906.84
2022-10-17T10:08:55.089Z,99894.69
2022-10-17T10:11:05.869Z,99899.97
2022-10-17T10:13:20.755Z,99888.69
2022-10-17T10:15:39.038Z,99887.00
2022-10-17T10:17:43.058Z,99887.06
2022-10-17T10:19:51.243Z,99892.31
2022-10-17T10:22:01.760Z,99871.44
2022-10-17T10:24:13.401Z,99877.53
2022-10-17T10:26:32.732Z,99887.13
2022-10-17T10:28:37.468Z,99869.72
2022-10-17T10:30:42.514Z,99873.19
2022-10-17T10:32:50.919Z,99873.19
2022-10-17T10:34:55.166Z,99874.94
2022-10-17T10:37:23.101Z,99874.06
2022-10-17T10:39:47.961Z,99856.63
2022-10-17T10:41:50.167Z,99877.53
2022-10-17T10:43:54.855Z,99867.97
2022-10-17T10:45:57.175Z,99852.25
2022-10-17T10:48:03.777Z,99874.94
2022-10-17T10:50:20.910Z,99864.41
2022-10-17T10:52:42.715Z,99875.78
2022-10-17T10:54:54.024Z,99869.66
2022-10-17T10:57:03.707Z,99867.06
2022-10-17T10:59:08.891Z,99874.91
2022-10-17T11:01:29.390Z,99864.44
2022-10-17T11:03:46.388Z,99847.03
2022-10-17T11:05:55.163Z,99830.50
2022-10-17T11:08:30.222Z,99843.59
2022-10-17T11:10:44.578Z,99834.00
2022-10-17T11:12:55.152Z,99821.84
2022-10-17T11:15:09.671Z,99838.41
2022-10-17T11:17:23.488Z,99830.56
2022-10-17T11:19:37.042Z,99843.63
2022-10-17T11:22:26.585Z,99834.91
2022-10-17T11:24:48.048Z,99829.72
2022-10-17T11:26:56.929Z,99824.47
2022-10-17T11:29:06.911Z,99815.75
2022-10-17T11:31:16.125Z,99820.09
2022-10-17T11:33:28.655Z,99828.78
2022-10-17T11:35:46.217Z,99814.03
2022-10-17T11:38:25.515Z,99813.13
2022-10-17T11:40:32.147Z,99815.75
2022-10-17T11:42:45.870Z,99818.38
2022-10-17T11:44:52.739Z,99806.97
2022-10-17T11:47:02.590Z,99825.31
2022-10-17T11:49:38.244Z,99831.41
2022-10-17T11:52:04.373Z,99794.81
2022-10-17T11:54:18.692Z,99826.16
2022-10-17T11:56:32.135Z,99801.81
2022-10-17T11:58:47.116Z,99793.09
2022-10-17T12:00:55.407Z,99806.16
2022-10-17T12:03:23.452Z,99799.22
2022-10-17T12:05:34.599Z,99788.72
2022-10-17T12:07:47.360Z,99791.38
2022-10-17T12:10:04.971Z,99793.13
2022-10-17T12:12:07.399Z,99768.69
2022-10-17T12:14:41.638Z,99780.06
2022-10-17T12:16:45.931Z,99766.09
2022-10-17T12:19:10.756Z,99777.44
2022-10-17T12:21:13.047Z,99763.53
2022-10-17T12:23:29.156Z,99759.19
2022-10-17T12:25:34.675Z,99769.63
2022-10-17T12:27:50.375Z,99736.53
2022-10-17T12:30:06.400Z,99739.16
2022-10-17T12:32:16.988Z,99748.75
2022-10-17T12:34:22.575Z,99748.75
2022-10-17T12:36:30.576Z,99758.34
2022-10-17T12:38:33.539Z,99752.19
2022-10-17T12:40:35.606Z,99756.59
2022-10-17T12:42:47.933Z,99761.78
2022-10-17T12:44:51.195Z,99755.69
2022-10-17T12:47:37.953Z,99759.19
2022-10-17T12:49:53.110Z,99774.84
2022-10-17T12:52:27.967Z,99784.44
2022-10-17T12:54:46.979Z,99772.22
2022-10-17T12:56:57.982Z,99776.59
2022-10-17T12:59:18.162Z,99766.13
2022-10-17T13:01:33.894Z,99727.78
2022-10-17T13:03:44.729Z,99780.06
2022-10-17T13:05:54.954Z,99796.63
2022-10-17T13:08:00.115Z,99785.28
2022-10-17T13:10:05.332Z,99795.75
2022-10-17T13:12:15.027Z,99795.75
2022-10-17T13:14:20.640Z,99799.25
2022-10-17T13:16:34.870Z,99791.41
2022-10-17T13:18:37.135Z,99794.00
2022-10-17T13:20:41.806Z,99802.69
2022-10-17T13:22:48.837Z,99829.72
2022-10-17T13:24:52.658Z,99836.69
2022-10-17T13:26:55.629Z,99858.47
2022-10-17T13:29:18.086Z,99863.66
2022-10-17T13:31:35.849Z,99868.00
2022-10-17T13:33:40.204Z,99857.50
2022-10-17T13:35:59.820Z,99855.78
2022-10-17T13:38:07.760Z,99873.22
2022-10-17T13:42:49.089Z,99857.53
2022-10-17T13:44:52.230Z,99864.53
2022-10-17T13:47:00.049Z,99841.88
2022-10-17T13:49:23.233Z,99818.31
2022-10-17T13:51:34.522Z,99857.59
2022-10-17T13:53:44.547Z,99856.72
2022-10-17T13:56:34.461Z,99847.09
2022-10-17T13:58:43.039Z,99862.81
2022-10-17T14:00:46.035Z,99850.63
2022-10-17T14:02:48.583Z,99841.03
2022-10-17T14:05:16.756Z,99849.75
2022-10-17T14:08:09.250Z,99818.38
2022-10-17T14:10:17.486Z,99836.69
2022-10-17T14:12:25.493Z,99804.44
2022-10-17T14:14:32.129Z,99821.91
2022-10-17T14:16:46.961Z,99810.56
2022-10-17T14:18:50.921Z,99751.25
2022-10-17T14:23:37.224Z,99824.50
2022-10-17T14:25:42.389Z,99807.94
2022-10-17T14:28:02.392Z,99827.97
2022-10-17T14:30:51.606Z,99814.03
2022-10-17T14:32:48.075Z,99811.44
2022-10-17T14:35:05.629Z,99807.91
2022-10-17T14:37:43.982Z,99814.88
2022-10-17T14:39:50.730Z,99804.41
2022-10-17T14:41:53.761Z,99803.50
2022-10-17T14:44:00.314Z,99792.16
2022-10-17T14:46:03.425Z,99798.25
2022-10-17T14:48:17.603Z,99821.72
2022-10-17T14:50:28.421Z,99797.31
2022-10-17T14:52:32.654Z,99819.06
2022-10-17T14:54:36.171Z,99833.03
2022-10-17T14:56:50.798Z,99833.91
2022-10-17T14:58:53.226Z,99820.88
2022-10-17T15:00:59.119Z,99822.59
2022-10-17T15:03:01.402Z,99833.97
2022-10-17T15:05:08.360Z,99832.25
2022-10-17T15:07:16.714Z,99826.19
2022-10-17T15:09:19.170Z,99820.94
2022-10-17T15:11:21.249Z,99827.03
2022-10-17T15:13:28.302Z,99819.19
2022-10-17T15:15:32.617Z,99834.91
2022-10-17T15:17:35.399Z,99845.38
2022-10-17T15:19:37.905Z,99852.31
2022-10-17T15:21:47.540Z,99808.75
2022-10-17T15:23:53.214Z,99841.91
2022-10-17T15:25:55.899Z,99830.56
2022-10-17T15:27:58.120Z,99853.22
2022-10-17T15:30:00.673Z,99851.50
2022-10-17T15:32:02.912Z,99848.91
2022-10-17T15:34:05.374Z,99840.19
2022-10-17T15:36:26.391Z,99851.50
2022-10-17T15:38:28.840Z,99834.03
2022-10-17T15:40:31.218Z,99838.41
2022-10-17T15:42:33.322Z,99861.09
2022-10-17T15:44:36.844Z,99851.47
2022-10-17T15:46:41.256Z,99848.88
2022-10-17T15:48:46.077Z,99851.50
2022-10-17T15:50:48.417Z,99854.13
2022-10-17T15:52:51.241Z,99865.44
2022-10-17T15:54:54.568Z,99852.38
2022-10-17T15:56:59.804Z,99845.44
2022-10-17T15:59:25.712Z,99848.94
2022-10-17T16:01:31.273Z,99840.19
2022-10-17T16:03:34.286Z,99831.44
2022-10-17T16:05:36.623Z,99863.75
2022-10-17T16:07:38.846Z,99856.78
2022-10-17T16:09:41.542Z,99854.19
2022-10-17T16:11:44.813Z,99832.41
2022-10-17T16:13:53.853Z,99828.91
2022-10-17T16:15:59.099Z,99818.44
2022-10-17T16:18:04.242Z,99835.88
2022-10-17T16:20:13.718Z,99849.81
2022-10-17T16:22:33.574Z,99838.50
2022-10-17T16:24:37.042Z,99820.19
2022-10-17T16:26:43.010Z,99832.38
2022-10-17T16:28:46.516Z,99801.91
2022-10-17T16:30:49.485Z,99847.22
2022-10-17T16:32:52.449Z,99858.56
2022-10-17T16:34:58.398Z,99839.38
2022-10-17T16:37:00.769Z,99848.09
2022-10-17T16:39:02.853Z,99850.72
2022-10-17T16:41:05.890Z,99835.03
2022-10-17T16:43:12.614Z,99854.19
2022-10-17T16:45:25.560Z,99865.53
2022-10-17T16:47:33.764Z,99859.44
2022-10-17T16:49:39.267Z,99852.47
2022-10-17T16:51:47.966Z,99875.16
2022-10-17T16:53:53.094Z,99872.53
2022-10-17T16:56:03.390Z,99864.69
2022-10-17T16:58:05.750Z,99863.81
2022-10-17T17:00:08.579Z,99865.56
2022-10-17T17:02:12.169Z,99877.78
2022-10-17T17:04:15.466Z,99858.59
2022-10-17T17:06:26.774Z,99876.91
2022-10-17T17:08:29.134Z,99856.84
2022-10-17T17:10:31.590Z,99872.53
2022-10-17T17:12:36.103Z,99838.56
2022-10-17T17:14:38.859Z,99860.34
2022-10-17T17:16:43.774Z,99862.97
2022-10-17T17:18:46.460Z,99871.69
2022-10-17T17:20:49.033Z,99867.31
2022-10-17T17:22:52.537Z,99858.59
2022-10-17T17:24:54.660Z,99858.59
2022-10-17T17:26:57.593Z,99858.63
2022-10-17T17:29:02.734Z,99853.38
2022-10-17T17:31:12.346Z,99871.66
2022-10-17T17:33:15.239Z,99850.75
2022-10-17T17:35:19.358Z,99859.47
2022-10-17T17:37:21.513Z,99857.72
2022-10-17T17:39:24.730Z,99852.50
2022-10-17T17:41:31.025Z,99861.22
2022-10-17T17:43:33.745Z,99853.38
2022-10-17T17:45:36.391Z,99862.97
2022-10-17T17:47:38.550Z,99862.97
2022-10-17T17:49:40.743Z,99870.78
2022-10-17T17:51:48.249Z,99874.28
2022-10-17T17:53:53.476Z,99835.91
2022-10-17T17:56:07.952Z,99826.31
2022-10-17T17:58:12.593Z,99841.13
2022-10-17T18:00:15.420Z,99875.13
2022-10-17T18:02:18.814Z,99861.16
2022-10-17T18:04:21.566Z,99863.78
2022-10-17T18:06:27.419Z,99862.91
2022-10-17T18:08:32.898Z,99871.59
2022-10-17T18:10:35.889Z,99868.09
2022-10-17T18:12:38.364Z,99859.41
2022-10-17T18:14:50.008Z,99879.47
2022-10-17T18:16:52.276Z,99821.91
2022-10-17T18:18:54.578Z,99845.44
2022-10-17T18:20:57.211Z,99865.53
2022-10-17T18:23:01.982Z,99868.13
2022-10-17T18:25:07.077Z,99866.41
2022-10-17T18:27:09.666Z,99868.13
2022-10-17T18:29:12.964Z,99872.44
2022-10-17T18:31:24.388Z,99862.88
2022-10-17T18:33:26.712Z,99858.50
2022-10-17T18:35:31.637Z,99871.59
2022-10-17T18:37:33.889Z,99870.75
2022-10-17T18:39:36.212Z,99878.56
2022-10-17T18:41:38.310Z,99882.94
2022-10-17T18:43:42.179Z,99863.78
2022-10-17T18:45:44.460Z,99874.25
2022-10-17T18:47:47.518Z,99865.53
2022-10-17T18:49:49.747Z,99889.06
2022-10-17T18:51:52.177Z,99867.28
2022-10-17T18:53:58.852Z,99859.44
2022-10-17T18:56:03.453Z,99867.31
2022-10-17T18:58:05.699Z,99888.22
2022-10-17T19:00:08.566Z,99881.22
2022-10-17T19:02:13.301Z,99889.94
2022-10-17T19:04:15.879Z,99879.47
2022-10-17T19:06:21.834Z,99876.88
2022-10-17T19:08:26.901Z,99875.97
2022-10-17T19:10:29.211Z,99886.41
2022-10-17T19:12:31.883Z,99894.25
2022-10-17T19:14:40.014Z,99859.31
2022-10-17T19:16:45.730Z,99878.47
2022-10-17T19:18:52.489Z,99893.28
2022-10-17T19:20:54.869Z,99887.22
2022-10-17T19:22:59.754Z,99888.91
2022-10-17T19:25:01.920Z,99887.16
2022-10-17T19:27:06.988Z,99887.09
2022-10-17T19:29:12.685Z,99891.47
2022-10-17T19:31:20.800Z,99879.22
2022-10-17T19:33:31.556Z,99878.28
2022-10-17T19:35:34.974Z,99854.69
2022-10-17T19:37:37.893Z,99886.06
2022-10-17T19:39:40.604Z,99877.34
2022-10-17T19:41:44.973Z,99883.44
2022-10-17T19:43:49.993Z,99891.25
2022-10-17T19:45:57.832Z,99873.81
2022-10-17T19:48:01.557Z,99879.91
2022-10-17T19:50:04.824Z,99872.94
2022-10-17T19:52:07.291Z,99885.16
2022-10-17T19:54:10.087Z,99873.75
2022-10-17T19:56:18.643Z,99891.25
2022-10-17T19:58:20.857Z,99865.94
2022-10-17T20:00:23.161Z,99882.50
2022-10-17T20:02:25.232Z,99891.25
2022-10-17T20:04:27.717Z,99885.16
2022-10-17T20:06:29.963Z,99896.53
2022-10-17T20:08:32.234Z,99893.88
2022-10-17T20:10:35.252Z,99896.47
2022-10-17T20:12:37.207Z,99899.94
2022-10-17T20:14:41.105Z,99897.25
2022-10-17T20:16:50.279Z,99891.16
2022-10-17T20:18:54.859Z,99902.50
2022-10-17T20:21:06.596Z,99881.50
2022-10-17T20:23:08.706Z,99896.34
2022-10-17T20:25:11.017Z,99894.59
2022-10-17T20:27:17.228Z,99903.34
2022-10-17T20:29:23.322Z,99902.47
2022-10-17T20:31:25.908Z,99905.94
2022-10-17T20:33:31.833Z,99914.66
2022-10-17T20:35:34.304Z,99850.91
2022-10-17T20:37:41.705Z,99905.06
2022-10-17T20:39:51.812Z,99911.19
2022-10-17T20:41:58.101Z,99906.84
2022-10-17T20:44:00.301Z,99914.75
2022-10-17T20:46:15.540Z,99920.00
2022-10-17T20:48:25.064Z,99916.53
2022-10-17T20:50:27.121Z,99926.16
2022-10-17T20:52:29.204Z,99903.53
2022-10-17T20:54:31.566Z,99906.22
2022-10-17T20:56:34.932Z,99918.44
2022-10-17T20:58:37.435Z,99924.56
2022-10-17T21:00:40.233Z,99922.81
2022-10-17T21:02:42.337Z,99900.97
2022-10-17T21:04:47.044Z,99923.66
2022-10-17T21:06:51.469Z,99921.06
2022-10-17T21:08:55.252Z,99918.41
2022-10-17T21:11:08.588Z,99893.91
2022-10-17T21:13:10.802Z,99926.16
2022-10-17T21:15:19.071Z,99900.78
2022-10-17T21:17:21.765Z,99911.25
2022-10-17T21:19:23.938Z,99907.72
2022-10-17T21:21:34.807Z,99901.59
2022-10-17T21:23:37.532Z,99904.97
2022-10-17T21:25:40.794Z,99899.72
2022-10-17T21:27:45.959Z,99891.84
2022-10-17T21:29:48.946Z,99904.03
2022-10-17T21:31:51.886Z,99899.66
2022-10-17T21:33:56.900Z,99898.75
2022-10-17T21:35:59.030Z,99896.97
2022-10-17T21:38:01.117Z,99880.41
2022-10-17T21:40:04.081Z,99889.06
2022-10-17T21:42:06.237Z,99887.25
2022-10-17T21:44:13.667Z,99854.84
2022-10-17T21:46:18.189Z,99878.47
2022-10-17T21:48:20.343Z,99881.97
2022-10-17T21:50:22.493Z,99891.56
2022-10-17T21:52:24.633Z,99884.59
2022-10-17T21:54:26.806Z,99882.00
2022-10-17T21:56:30.822Z,99882.88
2022-10-17T21:58:35.942Z,99873.34
2022-10-17T22:00:38.066Z,99881.19
2022-10-17T22:02:40.195Z,99867.28
2022-10-17T22:04:42.213Z,99882.13
2022-10-17T22:06:46.387Z,99887.38
2022-10-17T22:08:48.994Z,99861.19
2022-10-17T22:10:51.124Z,99879.53
2022-10-17T22:12:53.247Z,99882.09
2022-10-17T22:14:55.358Z,99866.38
2022-10-17T22:16:57.529Z,99865.44
2022-10-17T22:19:04.934Z,99869.81
2022-10-17T22:21:11.772Z,99861.97
2022-10-17T22:23:14.011Z,99854.97
2022-10-17T22:25:16.279Z,99835.72
2022-10-17T22:27:18.404Z,99851.44
2022-10-17T22:29:21.267Z,99851.38
2022-10-17T22:31:23.817Z,99862.69
2022-10-17T22:33:26.093Z,99869.56
2022-10-17T22:35:28.183Z,99865.19
2022-10-17T22:37:30.605Z,99866.81
2022-10-17T22:39:32.877Z,99870.34
2022-10-17T22:41:34.957Z,99867.63
2022-10-17T22:43:37.082Z,99863.31
2022-10-17T22:45:40.293Z,99853.72
2022-10-17T22:47:42.628Z,99859.88
2022-10-17T22:49:44.644Z,99873.81
2022-10-17T22:51:47.229Z,99859.94
2022-10-17T22:53:49.748Z,99846.94
2022-10-17T22:55:58.898Z,99851.28
2022-10-17T22:58:01.037Z,99845.25
2022-10-17T23:00:04.969Z,99846.19
2022-10-17T23:02:07.290Z,99851.50
2022-10-17T23:04:09.451Z,99845.41
2022-10-17T23:06:12.330Z,99829.72
2022-10-17T23:08:15.588Z,99840.19
2022-10-17T23:10:18.191Z,99846.41
2022-10-17T23:12:20.290Z,99844.69
2022-10-17T23:14:22.415Z,99821.19
2022-10-17T23:16:27.223Z,99830.75
2022-10-17T23:20:32.023Z,99842.97
2022-10-17T23:22:34.053Z,99821.16
2022-10-17T23:24:36.871Z,99846.47
2022-10-17T23:26:39.244Z,99836.84
2022-10-17T23:28:42.692Z,99847.28
2022-10-17T23:30:45.061Z,99847.25
2022-10-17T23:32:47.469Z,99830.69
2022-10-17T23:34:49.760Z,99836.72
2022-10-17T23:36:54.719Z,99844.50
2022-10-17T23:38:58.610Z,99834.94
2022-10-17T23:41:03.814Z,99850.63
2022-10-17T23:43:06.666Z,99856.69
2022-10-17T23:45:09.633Z,99860.13
2022-10-17T23:47:11.696Z,99845.38
2022-10-17T23:49:13.844Z,99843.63
2022-10-17T23:51:16.152Z,99826.13
2022-10-17T23:53:18.127Z,99840.03
2022-10-17T23:55:20.289Z,99846.88
2022-10-17T23:57:22.597Z,99840.78
2022-10-17T23:59:25.051Z,99841.63
